Ahwahnee, California
Current Conditions -  °F | °C
As of 2:53 AM on Wednesday 22 Oct 2014 (Local Time) from KMAE Reporting Station
Clear Clear  
Wind Chill:   Ceiling: Unl
Heat Index:   Visibility: 10mi
Dew Point:   Wind: 3mph
Humidity: 77%   Direction: 300°WNW
Pressure: 30.03"   Gusts: NA
Location:  37.37°N, 119.73°W
Report Text: KMAE 220953Z AUTO 30003KT 10SM CLR 09/05 A3003 RMK AO2 SLP166 T00890050
Loading
Personal Weather Stations






























Interactive Weather Map
Tropical Storm Tracking
New forecast layout! Learn more

10-Day Weather Forecast

Advertisements
Track Severe Weather on mobile